sensor_id;sensor_type;location;lat;lon;timestamp;P1;durP1;ratioP1;P2;durP2;ratioP2
24635;SDS011;12772;49.794;10.024;2024-02-16T00:02:40;5.40;;;4.07;;
24635;SDS011;12772;49.794;10.024;2024-02-16T00:06:43;5.20;;;4.38;;
24635;SDS011;12772;49.794;10.024;2024-02-16T00:10:45;5.07;;;3.88;;
24635;SDS011;12772;49.794;10.024;2024-02-16T00:14:47;4.35;;;3.80;;
24635;SDS011;12772;49.794;10.024;2024-02-16T00:18:49;4.47;;;3.92;;
24635;SDS011;12772;49.794;10.024;2024-02-16T00:22:51;5.57;;;3.80;;
24635;SDS011;12772;49.794;10.024;2024-02-16T00:26:53;5.40;;;3.55;;
24635;SDS011;12772;49.794;10.024;2024-02-16T00:30:55;6.72;;;3.67;;
24635;SDS011;12772;49.794;10.024;2024-02-16T00:34:57;4.70;;;3.50;;
24635;SDS011;12772;49.794;10.024;2024-02-16T00:38:59;4.95;;;3.60;;
24635;SDS011;12772;49.794;10.024;2024-02-16T00:43:01;3.47;;;3.17;;
24635;SDS011;12772;49.794;10.024;2024-02-16T00:47:03;3.95;;;3.05;;
24635;SDS011;12772;49.794;10.024;2024-02-16T00:51:06;5.07;;;3.45;;
24635;SDS011;12772;49.794;10.024;2024-02-16T00:55:08;4.13;;;3.60;;
24635;SDS011;12772;49.794;10.024;2024-02-16T00:59:11;5.28;;;3.50;;
24635;SDS011;12772;49.794;10.024;2024-02-16T01:03:13;4.30;;;3.60;;
24635;SDS011;12772;49.794;10.024;2024-02-16T01:07:16;4.20;;;3.80;;
24635;SDS011;12772;49.794;10.024;2024-02-16T01:11:18;5.10;;;3.50;;
24635;SDS011;12772;49.794;10.024;2024-02-16T01:15:20;3.67;;;3.38;;
24635;SDS011;12772;49.794;10.024;2024-02-16T01:19:22;6.10;;;3.95;;
24635;SDS011;12772;49.794;10.024;2024-02-16T01:23:24;4.32;;;3.38;;
24635;SDS011;12772;49.794;10.024;2024-02-16T01:27:26;4.72;;;3.60;;
24635;SDS011;12772;49.794;10.024;2024-02-16T01:31:28;3.58;;;3.10;;
24635;SDS011;12772;49.794;10.024;2024-02-16T01:35:31;3.40;;;3.15;;
24635;SDS011;12772;49.794;10.024;2024-02-16T01:39:33;4.32;;;3.10;;
24635;SDS011;12772;49.794;10.024;2024-02-16T01:43:35;3.35;;;3.05;;
24635;SDS011;12772;49.794;10.024;2024-02-16T01:47:37;4.07;;;3.45;;
24635;SDS011;12772;49.794;10.024;2024-02-16T01:51:39;3.67;;;3.33;;
24635;SDS011;12772;49.794;10.024;2024-02-16T01:55:42;5.65;;;3.80;;
24635;SDS011;12772;49.794;10.024;2024-02-16T01:59:44;4.38;;;3.20;;
24635;SDS011;12772;49.794;10.024;2024-02-16T02:03:46;3.58;;;3.10;;
24635;SDS011;12772;49.794;10.024;2024-02-16T02:07:48;3.83;;;3.53;;
24635;SDS011;12772;49.794;10.024;2024-02-16T02:11:50;3.83;;;3.17;;
24635;SDS011;12772;49.794;10.024;2024-02-16T02:15:53;4.80;;;3.45;;
24635;SDS011;12772;49.794;10.024;2024-02-16T02:19:56;4.90;;;3.97;;
24635;SDS011;12772;49.794;10.024;2024-02-16T02:23:58;5.65;;;3.28;;
24635;SDS011;12772;49.794;10.024;2024-02-16T02:28:00;5.30;;;3.40;;
24635;SDS011;12772;49.794;10.024;2024-02-16T02:32:03;3.88;;;3.30;;
24635;SDS011;12772;49.794;10.024;2024-02-16T02:36:05;3.95;;;3.47;;
24635;SDS011;12772;49.794;10.024;2024-02-16T02:40:08;4.28;;;3.80;;
24635;SDS011;12772;49.794;10.024;2024-02-16T02:44:10;5.20;;;3.78;;
24635;SDS011;12772;49.794;10.024;2024-02-16T02:48:12;3.90;;;3.00;;
24635;SDS011;12772;49.794;10.024;2024-02-16T02:52:14;4.65;;;3.88;;
24635;SDS011;12772;49.794;10.024;2024-02-16T02:56:16;3.50;;;3.30;;
24635;SDS011;12772;49.794;10.024;2024-02-16T03:00:18;4.03;;;3.63;;
24635;SDS011;12772;49.794;10.024;2024-02-16T03:04:21;3.80;;;3.20;;
24635;SDS011;12772;49.794;10.024;2024-02-16T03:08:23;3.88;;;3.53;;
24635;SDS011;12772;49.794;10.024;2024-02-16T03:12:25;4.03;;;3.63;;
24635;SDS011;12772;49.794;10.024;2024-02-16T03:16:27;3.83;;;3.45;;
24635;SDS011;12772;49.794;10.024;2024-02-16T03:20:29;4.28;;;3.88;;
24635;SDS011;12772;49.794;10.024;2024-02-16T03:24:31;4.95;;;4.18;;
24635;SDS011;12772;49.794;10.024;2024-02-16T03:28:33;5.35;;;3.67;;
24635;SDS011;12772;49.794;10.024;2024-02-16T03:32:35;4.30;;;3.85;;
24635;SDS011;12772;49.794;10.024;2024-02-16T03:36:38;3.65;;;3.35;;
24635;SDS011;12772;49.794;10.024;2024-02-16T03:40:40;3.67;;;3.38;;
24635;SDS011;12772;49.794;10.024;2024-02-16T03:44:42;4.05;;;3.65;;
24635;SDS011;12772;49.794;10.024;2024-02-16T03:48:44;4.20;;;3.60;;
24635;SDS011;12772;49.794;10.024;2024-02-16T03:52:46;4.88;;;4.10;;
24635;SDS011;12772;49.794;10.024;2024-02-16T03:56:51;3.97;;;3.65;;
24635;SDS011;12772;49.794;10.024;2024-02-16T04:00:55;4.28;;;3.70;;
24635;SDS011;12772;49.794;10.024;2024-02-16T04:04:57;4.75;;;3.65;;
24635;SDS011;12772;49.794;10.024;2024-02-16T04:08:58;4.35;;;3.95;;
24635;SDS011;12772;49.794;10.024;2024-02-16T04:13:01;5.88;;;3.50;;
24635;SDS011;12772;49.794;10.024;2024-02-16T04:17:03;3.90;;;3.58;;
24635;SDS011;12772;49.794;10.024;2024-02-16T04:21:06;3.75;;;3.35;;
24635;SDS011;12772;49.794;10.024;2024-02-16T04:25:08;3.92;;;3.45;;
24635;SDS011;12772;49.794;10.024;2024-02-16T04:29:10;4.13;;;3.67;;
24635;SDS011;12772;49.794;10.024;2024-02-16T04:33:12;3.85;;;3.47;;
24635;SDS011;12772;49.794;10.024;2024-02-16T04:37:14;4.00;;;3.60;;
24635;SDS011;12772;49.794;10.024;2024-02-16T04:41:19;4.60;;;3.78;;
24635;SDS011;12772;49.794;10.024;2024-02-16T04:45:21;4.10;;;3.80;;
24635;SDS011;12772;49.794;10.024;2024-02-16T04:49:23;3.92;;;3.63;;
24635;SDS011;12772;49.794;10.024;2024-02-16T04:53:25;7.07;;;5.25;;
24635;SDS011;12772;49.794;10.024;2024-02-16T04:57:27;6.50;;;4.38;;
24635;SDS011;12772;49.794;10.024;2024-02-16T05:01:29;5.95;;;5.35;;
24635;SDS011;12772;49.794;10.024;2024-02-16T05:05:31;5.28;;;4.63;;
24635;SDS011;12772;49.794;10.024;2024-02-16T05:09:33;6.32;;;5.03;;
24635;SDS011;12772;49.794;10.024;2024-02-16T05:13:35;7.03;;;5.47;;
24635;SDS011;12772;49.794;10.024;2024-02-16T05:17:38;7.45;;;5.07;;
24635;SDS011;12772;49.794;10.024;2024-02-16T05:21:40;6.05;;;5.13;;
24635;SDS011;12772;49.794;10.024;2024-02-16T05:25:42;5.18;;;4.22;;
24635;SDS011;12772;49.794;10.024;2024-02-16T05:29:44;5.28;;;4.78;;
24635;SDS011;12772;49.794;10.024;2024-02-16T05:33:50;4.88;;;4.35;;
24635;SDS011;12772;49.794;10.024;2024-02-16T05:37:52;7.35;;;5.15;;
24635;SDS011;12772;49.794;10.024;2024-02-16T05:41:55;4.47;;;4.05;;
24635;SDS011;12772;49.794;10.024;2024-02-16T05:45:57;5.03;;;4.63;;
24635;SDS011;12772;49.794;10.024;2024-02-16T05:49:59;9.25;;;5.38;;
24635;SDS011;12772;49.794;10.024;2024-02-16T05:54:01;5.40;;;4.90;;
24635;SDS011;12772;49.794;10.024;2024-02-16T05:58:04;5.55;;;4.47;;
24635;SDS011;12772;49.794;10.024;2024-02-16T06:02:06;4.88;;;4.47;;
24635;SDS011;12772;49.794;10.024;2024-02-16T06:06:08;5.90;;;4.82;;
24635;SDS011;12772;49.794;10.024;2024-02-16T06:10:10;5.07;;;4.68;;
24635;SDS011;12772;49.794;10.024;2024-02-16T06:14:12;5.22;;;4.82;;
24635;SDS011;12772;49.794;10.024;2024-02-16T06:18:15;5.50;;;5.00;;
24635;SDS011;12772;49.794;10.024;2024-02-16T06:22:17;4.85;;;4.30;;
24635;SDS011;12772;49.794;10.024;2024-02-16T06:26:20;6.22;;;4.88;;
24635;SDS011;12772;49.794;10.024;2024-02-16T06:30:22;7.20;;;5.25;;
24635;SDS011;12772;49.794;10.024;2024-02-16T06:34:23;5.63;;;5.03;;
24635;SDS011;12772;49.794;10.024;2024-02-16T06:38:25;6.20;;;5.60;;
24635;SDS011;12772;49.794;10.024;2024-02-16T06:42:27;5.45;;;4.95;;
24635;SDS011;12772;49.794;10.024;2024-02-16T06:46:31;6.53;;;5.72;;
24635;SDS011;12772;49.794;10.024;2024-02-16T06:50:33;5.45;;;4.95;;
24635;SDS011;12772;49.794;10.024;2024-02-16T06:54:35;5.70;;;5.07;;
24635;SDS011;12772;49.794;10.024;2024-02-16T06:58:37;6.45;;;5.65;;
24635;SDS011;12772;49.794;10.024;2024-02-16T07:02:39;5.40;;;4.90;;
24635;SDS011;12772;49.794;10.024;2024-02-16T07:06:42;7.78;;;5.35;;
24635;SDS011;12772;49.794;10.024;2024-02-16T07:10:44;7.93;;;6.80;;
24635;SDS011;12772;49.794;10.024;2024-02-16T07:14:47;12.80;;;9.18;;
24635;SDS011;12772;49.794;10.024;2024-02-16T07:18:50;10.82;;;7.45;;
24635;SDS011;12772;49.794;10.024;2024-02-16T07:22:52;7.88;;;6.40;;
24635;SDS011;12772;49.794;10.024;2024-02-16T07:26:54;6.18;;;5.57;;
24635;SDS011;12772;49.794;10.024;2024-02-16T07:30:56;6.68;;;5.95;;
24635;SDS011;12772;49.794;10.024;2024-02-16T07:34:59;8.00;;;5.03;;
24635;SDS011;12772;49.794;10.024;2024-02-16T07:39:03;7.20;;;6.57;;
24635;SDS011;12772;49.794;10.024;2024-02-16T07:43:05;8.13;;;7.18;;
24635;SDS011;12772;49.794;10.024;2024-02-16T07:47:08;7.43;;;6.72;;
24635;SDS011;12772;49.794;10.024;2024-02-16T07:51:10;7.55;;;6.55;;
24635;SDS011;12772;49.794;10.024;2024-02-16T07:55:12;6.20;;;5.65;;
24635;SDS011;12772;49.794;10.024;2024-02-16T07:59:14;8.07;;;6.13;;
24635;SDS011;12772;49.794;10.024;2024-02-16T08:03:19;6.07;;;5.57;;
24635;SDS011;12772;49.794;10.024;2024-02-16T08:07:21;6.85;;;6.15;;
24635;SDS011;12772;49.794;10.024;2024-02-16T08:11:23;7.25;;;5.88;;
24635;SDS011;12772;49.794;10.024;2024-02-16T08:15:25;6.53;;;5.93;;
24635;SDS011;12772;49.794;10.024;2024-02-16T08:19:31;6.60;;;5.88;;
24635;SDS011;12772;49.794;10.024;2024-02-16T08:23:35;8.57;;;5.68;;
24635;SDS011;12772;49.794;10.024;2024-02-16T08:27:37;6.40;;;5.80;;
24635;SDS011;12772;49.794;10.024;2024-02-16T08:31:39;6.70;;;6.07;;
24635;SDS011;12772;49.794;10.024;2024-02-16T08:35:41;7.20;;;6.07;;
24635;SDS011;12772;49.794;10.024;2024-02-16T08:39:43;6.68;;;5.35;;
24635;SDS011;12772;49.794;10.024;2024-02-16T08:43:46;6.18;;;5.65;;
24635;SDS011;12772;49.794;10.024;2024-02-16T08:47:48;7.70;;;5.95;;
24635;SDS011;12772;49.794;10.024;2024-02-16T08:51:50;6.32;;;5.68;;
24635;SDS011;12772;49.794;10.024;2024-02-16T08:55:52;7.13;;;6.32;;
24635;SDS011;12772;49.794;10.024;2024-02-16T08:59:54;6.35;;;5.75;;
24635;SDS011;12772;49.794;10.024;2024-02-16T09:03:56;6.25;;;5.60;;
24635;SDS011;12772;49.794;10.024;2024-02-16T09:07:58;5.53;;;5.10;;
24635;SDS011;12772;49.794;10.024;2024-02-16T09:12:00;5.20;;;4.80;;
24635;SDS011;12772;49.794;10.024;2024-02-16T09:16:02;6.18;;;5.50;;
24635;SDS011;12772;49.794;10.024;2024-02-16T09:20:05;5.55;;;5.05;;
24635;SDS011;12772;49.794;10.024;2024-02-16T09:24:08;5.25;;;4.78;;
24635;SDS011;12772;49.794;10.024;2024-02-16T09:28:10;5.43;;;4.93;;
24635;SDS011;12772;49.794;10.024;2024-02-16T09:32:13;5.50;;;5.00;;
24635;SDS011;12772;49.794;10.024;2024-02-16T09:36:15;4.60;;;4.20;;
24635;SDS011;12772;49.794;10.024;2024-02-16T09:40:17;4.90;;;4.50;;
24635;SDS011;12772;49.794;10.024;2024-02-16T09:44:21;4.50;;;4.10;;
24635;SDS011;12772;49.794;10.024;2024-02-16T09:48:26;5.55;;;4.10;;
24635;SDS011;12772;49.794;10.024;2024-02-16T09:52:28;6.22;;;4.30;;
24635;SDS011;12772;49.794;10.024;2024-02-16T09:56:31;5.75;;;3.80;;
24635;SDS011;12772;49.794;10.024;2024-02-16T10:00:33;4.43;;;3.88;;
24635;SDS011;12772;49.794;10.024;2024-02-16T10:04:35;5.00;;;4.07;;
24635;SDS011;12772;49.794;10.024;2024-02-16T10:08:56;4.57;;;4.20;;
24635;SDS011;12772;49.794;10.024;2024-02-16T10:13:01;5.93;;;4.53;;
24635;SDS011;12772;49.794;10.024;2024-02-16T10:17:05;4.55;;;3.35;;
24635;SDS011;12772;49.794;10.024;2024-02-16T10:21:09;3.13;;;2.92;;
24635;SDS011;12772;49.794;10.024;2024-02-16T10:25:11;3.47;;;3.17;;
24635;SDS011;12772;49.794;10.024;2024-02-16T10:29:16;6.28;;;3.40;;
24635;SDS011;12772;49.794;10.024;2024-02-16T10:33:20;3.00;;;2.80;;
24635;SDS011;12772;49.794;10.024;2024-02-16T10:37:22;4.85;;;3.10;;
24635;SDS011;12772;49.794;10.024;2024-02-16T10:41:26;3.90;;;3.22;;
24635;SDS011;12772;49.794;10.024;2024-02-16T10:45:31;4.50;;;2.60;;
24635;SDS011;12772;49.794;10.024;2024-02-16T10:49:35;3.50;;;2.78;;
24635;SDS011;12772;49.794;10.024;2024-02-16T10:53:37;2.67;;;2.47;;
24635;SDS011;12772;49.794;10.024;2024-02-16T10:57:40;3.58;;;3.20;;
24635;SDS011;12772;49.794;10.024;2024-02-16T11:01:43;3.03;;;2.55;;
24635;SDS011;12772;49.794;10.024;2024-02-16T11:05:46;3.05;;;2.70;;
24635;SDS011;12772;49.794;10.024;2024-02-16T11:09:47;2.95;;;2.75;;
24635;SDS011;12772;49.794;10.024;2024-02-16T11:13:54;2.70;;;2.50;;
24635;SDS011;12772;49.794;10.024;2024-02-16T11:17:57;3.08;;;2.42;;
24635;SDS011;12772;49.794;10.024;2024-02-16T11:22:02;3.10;;;2.15;;
24635;SDS011;12772;49.794;10.024;2024-02-16T11:26:09;4.85;;;2.45;;
24635;SDS011;12772;49.794;10.024;2024-02-16T11:30:13;2.20;;;2.00;;
24635;SDS011;12772;49.794;10.024;2024-02-16T11:34:23;2.38;;;2.17;;
24635;SDS011;12772;49.794;10.024;2024-02-16T11:38:26;2.67;;;2.08;;
24635;SDS011;12772;49.794;10.024;2024-02-16T11:42:28;3.58;;;2.60;;
24635;SDS011;12772;49.794;10.024;2024-02-16T11:46:30;4.82;;;2.50;;
24635;SDS011;12772;49.794;10.024;2024-02-16T11:50:33;2.88;;;2.10;;
24635;SDS011;12772;49.794;10.024;2024-02-16T11:54:35;2.10;;;1.85;;
24635;SDS011;12772;49.794;10.024;2024-02-16T11:58:37;2.70;;;1.90;;
24635;SDS011;12772;49.794;10.024;2024-02-16T12:02:39;3.15;;;2.10;;
24635;SDS011;12772;49.794;10.024;2024-02-16T12:06:42;2.70;;;2.10;;
24635;SDS011;12772;49.794;10.024;2024-02-16T12:10:50;3.08;;;2.30;;
24635;SDS011;12772;49.794;10.024;2024-02-16T12:14:55;2.92;;;2.10;;
24635;SDS011;12772;49.794;10.024;2024-02-16T12:19:04;3.15;;;2.20;;
24635;SDS011;12772;49.794;10.024;2024-02-16T12:23:12;4.70;;;2.08;;
24635;SDS011;12772;49.794;10.024;2024-02-16T12:27:14;2.63;;;1.90;;
24635;SDS011;12772;49.794;10.024;2024-02-16T12:31:19;2.47;;;2.05;;
24635;SDS011;12772;49.794;10.024;2024-02-16T12:35:22;2.47;;;2.00;;
24635;SDS011;12772;49.794;10.024;2024-02-16T12:39:25;2.22;;;1.95;;
24635;SDS011;12772;49.794;10.024;2024-02-16T12:43:27;3.83;;;1.70;;
24635;SDS011;12772;49.794;10.024;2024-02-16T12:47:29;2.10;;;1.90;;
24635;SDS011;12772;49.794;10.024;2024-02-16T12:51:31;2.40;;;2.20;;
24635;SDS011;12772;49.794;10.024;2024-02-16T12:55:33;4.75;;;2.45;;
24635;SDS011;12772;49.794;10.024;2024-02-16T12:59:36;3.55;;;2.22;;
24635;SDS011;12772;49.794;10.024;2024-02-16T13:03:38;3.35;;;1.83;;
24635;SDS011;12772;49.794;10.024;2024-02-16T13:07:40;8.52;;;2.60;;
24635;SDS011;12772;49.794;10.024;2024-02-16T13:11:42;2.17;;;1.85;;
24635;SDS011;12772;49.794;10.024;2024-02-16T13:15:44;2.78;;;2.05;;
24635;SDS011;12772;49.794;10.024;2024-02-16T13:19:47;2.28;;;1.90;;
24635;SDS011;12772;49.794;10.024;2024-02-16T13:23:49;3.92;;;2.13;;
24635;SDS011;12772;49.794;10.024;2024-02-16T13:27:51;2.60;;;1.98;;
24635;SDS011;12772;49.794;10.024;2024-02-16T13:31:53;4.55;;;1.95;;
24635;SDS011;12772;49.794;10.024;2024-02-16T13:35:55;4.57;;;2.15;;
24635;SDS011;12772;49.794;10.024;2024-02-16T13:39:57;3.58;;;1.90;;
24635;SDS011;12772;49.794;10.024;2024-02-16T13:43:59;3.58;;;2.30;;
24635;SDS011;12772;49.794;10.024;2024-02-16T13:48:08;2.90;;;2.10;;
24635;SDS011;12772;49.794;10.024;2024-02-16T13:52:11;2.13;;;1.92;;
24635;SDS011;12772;49.794;10.024;2024-02-16T13:56:13;2.85;;;1.85;;
24635;SDS011;12772;49.794;10.024;2024-02-16T14:00:15;3.70;;;2.03;;
24635;SDS011;12772;49.794;10.024;2024-02-16T14:04:17;3.15;;;2.10;;
24635;SDS011;12772;49.794;10.024;2024-02-16T14:08:20;2.97;;;2.25;;
24635;SDS011;12772;49.794;10.024;2024-02-16T14:12:23;2.67;;;2.17;;
24635;SDS011;12772;49.794;10.024;2024-02-16T14:16:25;3.05;;;2.35;;
24635;SDS011;12772;49.794;10.024;2024-02-16T14:20:27;2.55;;;2.08;;
24635;SDS011;12772;49.794;10.024;2024-02-16T14:24:29;7.95;;;2.92;;
24635;SDS011;12772;49.794;10.024;2024-02-16T14:28:31;5.28;;;2.42;;
24635;SDS011;12772;49.794;10.024;2024-02-16T14:32:33;2.40;;;2.10;;
24635;SDS011;12772;49.794;10.024;2024-02-16T14:36:35;5.38;;;2.28;;
24635;SDS011;12772;49.794;10.024;2024-02-16T14:40:37;2.85;;;2.28;;
24635;SDS011;12772;49.794;10.024;2024-02-16T14:44:39;2.35;;;2.15;;
24635;SDS011;12772;49.794;10.024;2024-02-16T14:48:41;2.75;;;2.10;;
24635;SDS011;12772;49.794;10.024;2024-02-16T14:52:43;3.60;;;2.20;;
24635;SDS011;12772;49.794;10.024;2024-02-16T14:56:45;6.60;;;2.17;;
24635;SDS011;12772;49.794;10.024;2024-02-16T15:00:47;2.50;;;2.30;;
24635;SDS011;12772;49.794;10.024;2024-02-16T15:04:50;3.28;;;2.35;;
24635;SDS011;12772;49.794;10.024;2024-02-16T15:08:52;4.75;;;2.33;;
24635;SDS011;12772;49.794;10.024;2024-02-16T15:12:54;2.30;;;1.92;;
24635;SDS011;12772;49.794;10.024;2024-02-16T15:16:56;4.43;;;2.60;;
24635;SDS011;12772;49.794;10.024;2024-02-16T15:20:59;6.35;;;2.22;;
24635;SDS011;12772;49.794;10.024;2024-02-16T15:25:01;2.13;;;2.03;;
24635;SDS011;12772;49.794;10.024;2024-02-16T15:29:04;3.65;;;2.50;;
24635;SDS011;12772;49.794;10.024;2024-02-16T15:33:06;3.70;;;2.55;;
24635;SDS011;12772;49.794;10.024;2024-02-16T15:37:08;4.80;;;2.58;;
24635;SDS011;12772;49.794;10.024;2024-02-16T15:41:10;3.15;;;2.85;;
24635;SDS011;12772;49.794;10.024;2024-02-16T15:45:12;3.72;;;2.83;;
24635;SDS011;12772;49.794;10.024;2024-02-16T15:49:14;4.40;;;2.80;;
24635;SDS011;12772;49.794;10.024;2024-02-16T15:53:16;4.90;;;2.55;;
24635;SDS011;12772;49.794;10.024;2024-02-16T15:57:18;9.48;;;2.75;;
24635;SDS011;12772;49.794;10.024;2024-02-16T16:01:20;4.15;;;2.55;;
24635;SDS011;12772;49.794;10.024;2024-02-16T16:05:22;4.65;;;2.92;;
24635;SDS011;12772;49.794;10.024;2024-02-16T16:09:24;5.25;;;2.88;;
24635;SDS011;12772;49.794;10.024;2024-02-16T16:13:26;4.55;;;2.70;;
24635;SDS011;12772;49.794;10.024;2024-02-16T16:17:28;3.45;;;2.75;;
24635;SDS011;12772;49.794;10.024;2024-02-16T16:21:30;4.65;;;3.30;;
24635;SDS011;12772;49.794;10.024;2024-02-16T16:25:33;4.50;;;2.70;;
24635;SDS011;12772;49.794;10.024;2024-02-16T16:29:36;5.30;;;3.20;;
24635;SDS011;12772;49.794;10.024;2024-02-16T16:33:39;5.13;;;3.00;;
24635;SDS011;12772;49.794;10.024;2024-02-16T16:37:41;6.95;;;3.17;;
24635;SDS011;12772;49.794;10.024;2024-02-16T16:41:43;5.40;;;2.75;;
24635;SDS011;12772;49.794;10.024;2024-02-16T16:45:45;3.90;;;2.72;;
24635;SDS011;12772;49.794;10.024;2024-02-16T16:49:47;5.68;;;3.17;;
24635;SDS011;12772;49.794;10.024;2024-02-16T16:53:49;5.40;;;3.63;;
24635;SDS011;12772;49.794;10.024;2024-02-16T16:57:50;5.05;;;3.47;;
24635;SDS011;12772;49.794;10.024;2024-02-16T17:01:52;5.10;;;3.45;;
24635;SDS011;12772;49.794;10.024;2024-02-16T17:05:54;4.00;;;3.15;;
24635;SDS011;12772;49.794;10.024;2024-02-16T17:09:57;6.43;;;3.03;;
24635;SDS011;12772;49.794;10.024;2024-02-16T17:13:59;4.07;;;2.63;;
24635;SDS011;12772;49.794;10.024;2024-02-16T17:18:01;4.15;;;2.80;;
24635;SDS011;12772;49.794;10.024;2024-02-16T17:22:05;3.72;;;2.80;;
24635;SDS011;12772;49.794;10.024;2024-02-16T17:26:07;4.25;;;2.83;;
24635;SDS011;12772;49.794;10.024;2024-02-16T17:30:09;7.68;;;3.05;;
24635;SDS011;12772;49.794;10.024;2024-02-16T17:34:12;4.18;;;3.10;;
24635;SDS011;12772;49.794;10.024;2024-02-16T17:38:14;5.95;;;3.58;;
24635;SDS011;12772;49.794;10.024;2024-02-16T17:42:15;7.93;;;3.60;;
24635;SDS011;12772;49.794;10.024;2024-02-16T17:46:17;5.25;;;2.55;;
24635;SDS011;12772;49.794;10.024;2024-02-16T17:50:19;10.52;;;2.72;;
24635;SDS011;12772;49.794;10.024;2024-02-16T17:54:21;5.13;;;2.88;;
24635;SDS011;12772;49.794;10.024;2024-02-16T17:58:24;9.57;;;3.03;;
24635;SDS011;12772;49.794;10.024;2024-02-16T18:02:26;4.15;;;2.80;;
24635;SDS011;12772;49.794;10.024;2024-02-16T18:06:28;6.75;;;2.92;;
24635;SDS011;12772;49.794;10.024;2024-02-16T18:10:30;6.60;;;2.80;;
24635;SDS011;12772;49.794;10.024;2024-02-16T18:14:33;3.05;;;2.40;;
24635;SDS011;12772;49.794;10.024;2024-02-16T18:18:35;6.05;;;2.20;;
24635;SDS011;12772;49.794;10.024;2024-02-16T18:22:37;3.03;;;2.83;;
24635;SDS011;12772;49.794;10.024;2024-02-16T18:26:39;5.03;;;3.50;;
24635;SDS011;12772;49.794;10.024;2024-02-16T18:30:41;4.47;;;2.90;;
24635;SDS011;12772;49.794;10.024;2024-02-16T18:34:43;4.25;;;2.70;;
24635;SDS011;12772;49.794;10.024;2024-02-16T18:38:46;4.82;;;2.63;;
24635;SDS011;12772;49.794;10.024;2024-02-16T18:42:48;3.63;;;2.38;;
24635;SDS011;12772;49.794;10.024;2024-02-16T18:46:53;5.35;;;3.20;;
24635;SDS011;12772;49.794;10.024;2024-02-16T18:50:56;10.10;;;3.20;;
24635;SDS011;12772;49.794;10.024;2024-02-16T18:54:58;3.53;;;2.80;;
24635;SDS011;12772;49.794;10.024;2024-02-16T18:59:00;3.92;;;2.75;;
24635;SDS011;12772;49.794;10.024;2024-02-16T19:03:03;4.93;;;3.22;;
24635;SDS011;12772;49.794;10.024;2024-02-16T19:07:05;3.10;;;2.63;;
24635;SDS011;12772;49.794;10.024;2024-02-16T19:11:07;2.78;;;2.50;;
24635;SDS011;12772;49.794;10.024;2024-02-16T19:15:09;3.90;;;2.95;;
24635;SDS011;12772;49.794;10.024;2024-02-16T19:19:11;4.93;;;3.17;;
24635;SDS011;12772;49.794;10.024;2024-02-16T19:23:14;4.65;;;2.67;;
24635;SDS011;12772;49.794;10.024;2024-02-16T19:27:16;4.40;;;2.50;;
24635;SDS011;12772;49.794;10.024;2024-02-16T19:31:21;2.65;;;2.20;;
24635;SDS011;12772;49.794;10.024;2024-02-16T19:35:23;4.60;;;2.92;;
24635;SDS011;12772;49.794;10.024;2024-02-16T19:39:25;4.63;;;2.88;;
24635;SDS011;12772;49.794;10.024;2024-02-16T19:43:27;4.80;;;3.03;;
24635;SDS011;12772;49.794;10.024;2024-02-16T19:47:29;4.50;;;2.80;;
24635;SDS011;12772;49.794;10.024;2024-02-16T19:51:31;3.35;;;2.72;;
24635;SDS011;12772;49.794;10.024;2024-02-16T19:55:34;7.15;;;3.80;;
24635;SDS011;12772;49.794;10.024;2024-02-16T19:59:36;4.30;;;3.90;;
24635;SDS011;12772;49.794;10.024;2024-02-16T20:03:38;4.25;;;3.45;;
24635;SDS011;12772;49.794;10.024;2024-02-16T20:07:40;8.40;;;3.30;;
24635;SDS011;12772;49.794;10.024;2024-02-16T20:11:43;5.38;;;3.10;;
24635;SDS011;12772;49.794;10.024;2024-02-16T20:15:48;4.55;;;3.33;;
24635;SDS011;12772;49.794;10.024;2024-02-16T20:19:51;4.32;;;3.88;;
24635;SDS011;12772;49.794;10.024;2024-02-16T20:23:53;8.77;;;7.88;;
24635;SDS011;12772;49.794;10.024;2024-02-16T20:27:55;14.38;;;12.85;;
24635;SDS011;12772;49.794;10.024;2024-02-16T20:32:03;11.70;;;8.27;;
24635;SDS011;12772;49.794;10.024;2024-02-16T20:36:06;5.88;;;4.43;;
24635;SDS011;12772;49.794;10.024;2024-02-16T20:40:08;6.88;;;3.85;;
24635;SDS011;12772;49.794;10.024;2024-02-16T20:44:10;6.00;;;3.40;;
24635;SDS011;12772;49.794;10.024;2024-02-16T20:48:12;5.32;;;4.07;;
24635;SDS011;12772;49.794;10.024;2024-02-16T20:52:14;4.97;;;3.42;;
24635;SDS011;12772;49.794;10.024;2024-02-16T20:56:16;6.72;;;4.15;;
24635;SDS011;12772;49.794;10.024;2024-02-16T21:00:18;6.35;;;4.18;;
24635;SDS011;12772;49.794;10.024;2024-02-16T21:04:29;5.55;;;5.05;;
24635;SDS011;12772;49.794;10.024;2024-02-16T21:08:35;3.80;;;3.50;;
24635;SDS011;12772;49.794;10.024;2024-02-16T21:12:38;4.88;;;4.40;;
24635;SDS011;12772;49.794;10.024;2024-02-16T21:16:41;3.72;;;3.20;;
24635;SDS011;12772;49.794;10.024;2024-02-16T21:20:43;7.20;;;5.25;;
24635;SDS011;12772;49.794;10.024;2024-02-16T21:24:45;5.60;;;5.07;;
24635;SDS011;12772;49.794;10.024;2024-02-16T21:28:48;3.45;;;3.15;;
24635;SDS011;12772;49.794;10.024;2024-02-16T21:32:50;4.70;;;3.97;;
24635;SDS011;12772;49.794;10.024;2024-02-16T21:36:52;3.15;;;2.95;;
24635;SDS011;12772;49.794;10.024;2024-02-16T21:40:58;3.55;;;3.03;;
24635;SDS011;12772;49.794;10.024;2024-02-16T21:45:01;3.80;;;3.40;;
24635;SDS011;12772;49.794;10.024;2024-02-16T21:49:04;3.60;;;3.30;;
24635;SDS011;12772;49.794;10.024;2024-02-16T21:53:07;4.15;;;3.75;;
24635;SDS011;12772;49.794;10.024;2024-02-16T21:57:09;8.68;;;7.78;;
24635;SDS011;12772;49.794;10.024;2024-02-16T22:01:12;4.43;;;4.00;;
24635;SDS011;12772;49.794;10.024;2024-02-16T22:05:14;4.05;;;3.75;;
24635;SDS011;12772;49.794;10.024;2024-02-16T22:09:16;4.00;;;3.70;;
24635;SDS011;12772;49.794;10.024;2024-02-16T22:13:18;5.13;;;3.42;;
24635;SDS011;12772;49.794;10.024;2024-02-16T22:17:23;4.05;;;3.25;;
24635;SDS011;12772;49.794;10.024;2024-02-16T22:21:25;3.42;;;3.13;;
24635;SDS011;12772;49.794;10.024;2024-02-16T22:25:27;3.22;;;3.03;;
24635;SDS011;12772;49.794;10.024;2024-02-16T22:29:32;3.33;;;3.03;;
24635;SDS011;12772;49.794;10.024;2024-02-16T22:33:34;2.95;;;2.75;;
24635;SDS011;12772;49.794;10.024;2024-02-16T22:37:36;2.75;;;2.55;;
24635;SDS011;12772;49.794;10.024;2024-02-16T22:41:38;5.30;;;4.80;;
24635;SDS011;12772;49.794;10.024;2024-02-16T22:45:40;2.92;;;2.60;;
24635;SDS011;12772;49.794;10.024;2024-02-16T22:49:43;4.00;;;3.70;;
24635;SDS011;12772;49.794;10.024;2024-02-16T22:53:44;3.88;;;3.20;;
24635;SDS011;12772;49.794;10.024;2024-02-16T22:57:46;3.30;;;3.00;;
24635;SDS011;12772;49.794;10.024;2024-02-16T23:01:49;3.15;;;2.92;;
24635;SDS011;12772;49.794;10.024;2024-02-16T23:05:51;2.58;;;2.38;;
24635;SDS011;12772;49.794;10.024;2024-02-16T23:09:56;3.45;;;2.80;;
24635;SDS011;12772;49.794;10.024;2024-02-16T23:13:59;2.33;;;2.13;;
24635;SDS011;12772;49.794;10.024;2024-02-16T23:18:01;1.92;;;1.80;;
24635;SDS011;12772;49.794;10.024;2024-02-16T23:22:03;2.90;;;2.40;;
24635;SDS011;12772;49.794;10.024;2024-02-16T23:26:05;2.20;;;2.00;;
24635;SDS011;12772;49.794;10.024;2024-02-16T23:30:07;2.28;;;2.00;;
24635;SDS011;12772;49.794;10.024;2024-02-16T23:34:09;3.90;;;2.20;;
24635;SDS011;12772;49.794;10.024;2024-02-16T23:38:11;2.92;;;2.67;;
24635;SDS011;12772;49.794;10.024;2024-02-16T23:42:13;3.53;;;2.75;;
24635;SDS011;12772;49.794;10.024;2024-02-16T23:46:15;2.20;;;2.08;;
24635;SDS011;12772;49.794;10.024;2024-02-16T23:50:17;2.60;;;2.40;;
24635;SDS011;12772;49.794;10.024;2024-02-16T23:54:19;2.10;;;2.00;;
24635;SDS011;12772;49.794;10.024;2024-02-16T23:58:21;2.45;;;2.25;;
